Terminal Aerodrome Forecast
Issued by NWS

Home | Current Version | Previous Version | Text Only | Print | Product List | Glossary On
Versions: 1 2 3 4 5 6 7 8 9 10 11 12 13 14
000
FTUS45 KFGZ 240500 RRA
TAFGCN
TAF
KGCN 240544Z 2406/2506 VRB03KT P6SM FEW250
     FM241800 23010G18KT P6SM SCT250
     FM250200 VRB04KT P6SM FEW250=

USA.gov is the U.S. government's official web portal to all federal, state and local government web resources and services.